EJU73 GMMN-LPPT
Flight info
| Callsign | EJU73 |
|---|---|
| Flight time | 0h 56m |
| Altitude | 36000 |
| Route | LAKAM UR722 AMSEL DCT VATZI |
| Aircraft | A320/M-SDE3FGHIRWY/LB1 |
Departure
| Time | 2026-05-07 18:46 |
|---|---|
| Airport | Mohammed V International Airport (GMMN) |
Arrival
| Time | 2026-05-07 19:42 |
|---|---|
| Airport | Lisbon Humberto Delgado Airport (LPPT) |
| Time | Latitude | Longitude | Altitude | Speed | Heading |
|---|---|---|---|---|---|
| 2026-05-07 18:28 | 33.35943 | -7.57895 | 657 ft | 0 kts | 214° |
| 2026-05-07 18:41 | 33.35932 | -7.57905 | 655 ft | 6 kts | 214° |
| 2026-05-07 18:41 | 33.35892 | -7.57951 | 653 ft | 10 kts | 198° |
| 2026-05-07 18:41 | 33.35812 | -7.57936 | 655 ft | 14 kts | 163° |
| 2026-05-07 18:41 | 33.35704 | -7.57902 | 653 ft | 17 kts | 165° |
| 2026-05-07 18:42 | 33.35607 | -7.57929 | 653 ft | 17 kts | 247° |
| 2026-05-07 18:42 | 33.35549 | -7.58016 | 652 ft | 16 kts | 162° |
| 2026-05-07 18:42 | 33.35430 | -7.57977 | 652 ft | 20 kts | 164° |
| 2026-05-07 18:42 | 33.35285 | -7.57959 | 653 ft | 22 kts | 209° |
| 2026-05-07 18:43 | 33.35242 | -7.58062 | 653 ft | 0 kts | 248° |
| 2026-05-07 18:44 | 33.35237 | -7.58076 | 654 ft | 7 kts | 249° |
| 2026-05-07 18:45 | 33.35213 | -7.58169 | 654 ft | 14 kts | 254° |
| 2026-05-07 18:45 | 33.35225 | -7.58265 | 656 ft | 8 kts | 344° |
| 2026-05-07 18:45 | 33.35259 | -7.58278 | 654 ft | 13 kts | 343° |
| 2026-05-07 18:45 | 33.35612 | -7.58395 | 646 ft | 89 kts | 343° |
| 2026-05-07 18:46 | 33.36383 | -7.58660 | 651 ft | 141 kts | 343° |
| 2026-05-07 18:46 | 33.37406 | -7.59007 | 1038 ft | 158 kts | 345° |
| 2026-05-07 18:46 | 33.38458 | -7.59357 | 1792 ft | 157 kts | 347° |
| 2026-05-07 18:46 | 33.39541 | -7.59732 | 2329 ft | 172 kts | 343° |
| 2026-05-07 18:47 | 33.40715 | -7.60321 | 2678 ft | 195 kts | 336° |
| 2026-05-07 18:47 | 33.41947 | -7.61215 | 3040 ft | 220 kts | 326° |
| 2026-05-07 18:47 | 33.43139 | -7.62441 | 3758 ft | 232 kts | 316° |
| 2026-05-07 18:47 | 33.44190 | -7.63938 | 4626 ft | 239 kts | 304° |
| 2026-05-07 18:48 | 33.45121 | -7.65621 | 5432 ft | 246 kts | 302° |
| 2026-05-07 18:48 | 33.46060 | -7.67322 | 6315 ft | 250 kts | 301° |
| 2026-05-07 18:48 | 33.47034 | -7.69078 | 7140 ft | 255 kts | 300° |
| 2026-05-07 18:48 | 33.48026 | -7.70861 | 8020 ft | 259 kts | 300° |
| 2026-05-07 18:49 | 33.49032 | -7.72665 | 8929 ft | 262 kts | 299° |
| 2026-05-07 18:49 | 33.50047 | -7.74490 | 9838 ft | 265 kts | 298° |
| 2026-05-07 18:49 | 33.51072 | -7.76336 | 10645 ft | 268 kts | 298° |
| 2026-05-07 18:49 | 33.52123 | -7.78204 | 11379 ft | 278 kts | 301° |
| 2026-05-07 18:50 | 33.53669 | -7.79799 | 11670 ft | 314 kts | 329° |
| 2026-05-07 18:50 | 33.55895 | -7.80416 | 11944 ft | 348 kts | 355° |
| 2026-05-07 18:50 | 33.58382 | -7.80331 | 12464 ft | 363 kts | 1° |
| 2026-05-07 18:50 | 33.60921 | -7.80060 | 13186 ft | 370 kts | 3° |
| 2026-05-07 18:51 | 33.63457 | -7.79719 | 13901 ft | 375 kts | 4° |
| 2026-05-07 18:51 | 33.66063 | -7.79360 | 14550 ft | 379 kts | 3° |
| 2026-05-07 18:51 | 33.68693 | -7.79018 | 14844 ft | 380 kts | 2° |
| 2026-05-07 18:51 | 33.71327 | -7.78705 | 14947 ft | 380 kts | 2° |
| 2026-05-07 18:52 | 33.73963 | -7.78421 | 15067 ft | 383 kts | 1° |
| 2026-05-07 18:52 | 33.76623 | -7.78157 | 15822 ft | 384 kts | 1° |
| 2026-05-07 18:52 | 33.79297 | -7.77896 | 16539 ft | 387 kts | 1° |
| 2026-05-07 18:52 | 33.81992 | -7.77629 | 17230 ft | 390 kts | 1° |
| 2026-05-07 18:53 | 33.84704 | -7.77357 | 17905 ft | 394 kts | 0° |
| 2026-05-07 18:53 | 33.87411 | -7.77081 | 18522 ft | 397 kts | 0° |
| 2026-05-07 18:53 | 33.90179 | -7.76796 | 19077 ft | 401 kts | 0° |
| 2026-05-07 18:53 | 33.92973 | -7.76509 | 19632 ft | 405 kts | 0° |
| 2026-05-07 18:54 | 33.95793 | -7.76217 | 20187 ft | 409 kts | 0° |
| 2026-05-07 18:54 | 33.98639 | -7.75921 | 20745 ft | 413 kts | 0° |
| 2026-05-07 18:54 | 34.01515 | -7.75623 | 21266 ft | 417 kts | 0° |
| 2026-05-07 18:54 | 34.04418 | -7.75320 | 21789 ft | 421 kts | 360° |
| 2026-05-07 18:55 | 34.07347 | -7.75017 | 22307 ft | 424 kts | 360° |
| 2026-05-07 18:55 | 34.10301 | -7.74712 | 22820 ft | 428 kts | 360° |
| 2026-05-07 18:55 | 34.13243 | -7.74408 | 23322 ft | 432 kts | 359° |
| 2026-05-07 18:55 | 34.16242 | -7.74097 | 23767 ft | 435 kts | 359° |
| 2026-05-07 18:56 | 34.19265 | -7.73893 | 24188 ft | 434 kts | 353° |
| 2026-05-07 18:56 | 34.22273 | -7.74080 | 24627 ft | 434 kts | 350° |
| 2026-05-07 18:56 | 34.25292 | -7.74297 | 25074 ft | 436 kts | 350° |
| 2026-05-07 18:56 | 34.28328 | -7.74511 | 25510 ft | 438 kts | 350° |
| 2026-05-07 18:57 | 34.31378 | -7.74724 | 25937 ft | 440 kts | 350° |
| 2026-05-07 18:57 | 34.34444 | -7.74934 | 26362 ft | 442 kts | 350° |
| 2026-05-07 18:57 | 34.37524 | -7.75146 | 26780 ft | 444 kts | 350° |
| 2026-05-07 18:57 | 34.40576 | -7.75360 | 27186 ft | 446 kts | 350° |
| 2026-05-07 18:58 | 34.43685 | -7.75575 | 27597 ft | 448 kts | 350° |
| 2026-05-07 18:58 | 34.46808 | -7.75788 | 28006 ft | 450 kts | 350° |
| 2026-05-07 18:58 | 34.49945 | -7.76004 | 28426 ft | 453 kts | 350° |
| 2026-05-07 18:58 | 34.53092 | -7.76222 | 28815 ft | 455 kts | 350° |
| 2026-05-07 18:59 | 34.56261 | -7.76443 | 29202 ft | 457 kts | 350° |
| 2026-05-07 18:59 | 34.59446 | -7.76667 | 29577 ft | 459 kts | 349° |
| 2026-05-07 18:59 | 34.62644 | -7.76894 | 29960 ft | 462 kts | 349° |
| 2026-05-07 18:59 | 34.65859 | -7.77119 | 30269 ft | 464 kts | 350° |
| 2026-05-07 19:00 | 34.69090 | -7.77343 | 30560 ft | 466 kts | 350° |
| 2026-05-07 19:00 | 34.72292 | -7.77566 | 30838 ft | 468 kts | 349° |
| 2026-05-07 19:00 | 34.75552 | -7.77798 | 31144 ft | 470 kts | 349° |
| 2026-05-07 19:00 | 34.78822 | -7.78052 | 31386 ft | 473 kts | 349° |
| 2026-05-07 19:01 | 34.82119 | -7.78328 | 31694 ft | 474 kts | 349° |
| 2026-05-07 19:01 | 34.85397 | -7.78610 | 32096 ft | 473 kts | 349° |
| 2026-05-07 19:01 | 34.88682 | -7.78894 | 32498 ft | 472 kts | 349° |
| 2026-05-07 19:01 | 34.91946 | -7.79172 | 32885 ft | 471 kts | 349° |
| 2026-05-07 19:02 | 34.95214 | -7.79445 | 33277 ft | 470 kts | 349° |
| 2026-05-07 19:02 | 34.98476 | -7.79717 | 33668 ft | 469 kts | 349° |
| 2026-05-07 19:02 | 35.01689 | -7.79985 | 34056 ft | 469 kts | 349° |
| 2026-05-07 19:02 | 35.04941 | -7.80256 | 34399 ft | 468 kts | 349° |
| 2026-05-07 19:03 | 35.08186 | -7.80530 | 34734 ft | 467 kts | 348° |
| 2026-05-07 19:03 | 35.11425 | -7.80806 | 35050 ft | 466 kts | 348° |
| 2026-05-07 19:03 | 35.14651 | -7.81078 | 35368 ft | 465 kts | 348° |
| 2026-05-07 19:03 | 35.17886 | -7.81347 | 35678 ft | 464 kts | 348° |
| 2026-05-07 19:04 | 35.21102 | -7.81615 | 35909 ft | 464 kts | 348° |
| 2026-05-07 19:04 | 35.27445 | -7.82140 | 35960 ft | 456 kts | 348° |
| 2026-05-07 19:05 | 35.33767 | -7.82678 | 35963 ft | 455 kts | 348° |
| 2026-05-07 19:05 | 35.40080 | -7.83226 | 35961 ft | 455 kts | 348° |
| 2026-05-07 19:06 | 35.46333 | -7.84028 | 35959 ft | 442 kts | 335° |
| 2026-05-07 19:06 | 35.54868 | -7.87883 | 35972 ft | 435 kts | 330° |
| 2026-05-07 19:07 | 35.60480 | -7.90516 | 35966 ft | 435 kts | 330° |
| 2026-05-07 19:07 | 35.66143 | -7.93170 | 35963 ft | 436 kts | 330° |
| 2026-05-07 19:08 | 35.71812 | -7.95825 | 35962 ft | 436 kts | 330° |
| 2026-05-07 19:08 | 35.77481 | -7.98488 | 35961 ft | 436 kts | 330° |
| 2026-05-07 19:09 | 35.83110 | -8.01121 | 35959 ft | 436 kts | 330° |
| 2026-05-07 19:09 | 35.88777 | -8.03789 | 35959 ft | 436 kts | 330° |
| 2026-05-07 19:10 | 35.94444 | -8.06465 | 35961 ft | 436 kts | 330° |
| 2026-05-07 19:10 | 35.99155 | -8.08694 | 35979 ft | 436 kts | 330° |
| 2026-05-07 19:11 | 36.04820 | -8.11371 | 35969 ft | 436 kts | 330° |
| 2026-05-07 19:11 | 36.11417 | -8.14487 | 35958 ft | 436 kts | 330° |
| 2026-05-07 19:12 | 36.16161 | -8.16738 | 35955 ft | 436 kts | 330° |
| 2026-05-07 19:12 | 36.21833 | -8.19434 | 35951 ft | 437 kts | 330° |
| 2026-05-07 19:13 | 36.27469 | -8.22116 | 35966 ft | 437 kts | 330° |
| 2026-05-07 19:13 | 36.33134 | -8.24818 | 35961 ft | 437 kts | 330° |
| 2026-05-07 19:14 | 36.38802 | -8.27534 | 35956 ft | 437 kts | 330° |
| 2026-05-07 19:14 | 36.44475 | -8.30246 | 35954 ft | 437 kts | 330° |
| 2026-05-07 19:15 | 36.50153 | -8.32954 | 35973 ft | 437 kts | 330° |
| 2026-05-07 19:15 | 36.55796 | -8.35649 | 35949 ft | 438 kts | 330° |
| 2026-05-07 19:16 | 36.61482 | -8.38387 | 35932 ft | 439 kts | 330° |
| 2026-05-07 19:16 | 36.67175 | -8.41127 | 35930 ft | 439 kts | 330° |
| 2026-05-07 19:17 | 36.72882 | -8.43879 | 35942 ft | 440 kts | 330° |
| 2026-05-07 19:17 | 36.78596 | -8.46643 | 35939 ft | 441 kts | 330° |
| 2026-05-07 19:18 | 36.84319 | -8.49407 | 35941 ft | 441 kts | 330° |
| 2026-05-07 19:18 | 36.90007 | -8.52155 | 35939 ft | 441 kts | 330° |
| 2026-05-07 19:19 | 36.95732 | -8.54931 | 35931 ft | 443 kts | 330° |
| 2026-05-07 19:19 | 36.98612 | -8.56334 | 35669 ft | 444 kts | 330° |
| 2026-05-07 19:19 | 37.01482 | -8.57729 | 35419 ft | 443 kts | 330° |
| 2026-05-07 19:20 | 37.04346 | -8.59116 | 35084 ft | 439 kts | 330° |
| 2026-05-07 19:20 | 37.07190 | -8.60494 | 34542 ft | 437 kts | 330° |
| 2026-05-07 19:20 | 37.10021 | -8.61871 | 34012 ft | 436 kts | 330° |
| 2026-05-07 19:20 | 37.12804 | -8.63229 | 33445 ft | 434 kts | 330° |
| 2026-05-07 19:21 | 37.15605 | -8.64596 | 32935 ft | 430 kts | 330° |
| 2026-05-07 19:21 | 37.18386 | -8.65956 | 32416 ft | 428 kts | 331° |
| 2026-05-07 19:21 | 37.21152 | -8.67309 | 31903 ft | 425 kts | 331° |
| 2026-05-07 19:21 | 37.23899 | -8.68652 | 31396 ft | 423 kts | 332° |
| 2026-05-07 19:22 | 37.26632 | -8.69987 | 30896 ft | 420 kts | 332° |
| 2026-05-07 19:22 | 37.29348 | -8.71315 | 30414 ft | 418 kts | 332° |
| 2026-05-07 19:22 | 37.32049 | -8.72635 | 29920 ft | 416 kts | 332° |
| 2026-05-07 19:22 | 37.34734 | -8.73952 | 29418 ft | 412 kts | 332° |
| 2026-05-07 19:23 | 37.37357 | -8.75240 | 28970 ft | 408 kts | 332° |
| 2026-05-07 19:23 | 37.39986 | -8.76537 | 28537 ft | 404 kts | 332° |
| 2026-05-07 19:23 | 37.42586 | -8.77823 | 28082 ft | 401 kts | 333° |
| 2026-05-07 19:23 | 37.45169 | -8.79098 | 27640 ft | 397 kts | 333° |
| 2026-05-07 19:24 | 37.47732 | -8.80360 | 27196 ft | 394 kts | 333° |
| 2026-05-07 19:24 | 37.50276 | -8.81613 | 26744 ft | 391 kts | 333° |
| 2026-05-07 19:24 | 37.52806 | -8.82859 | 26279 ft | 389 kts | 333° |
| 2026-05-07 19:24 | 37.55323 | -8.84100 | 25820 ft | 388 kts | 333° |
| 2026-05-07 19:25 | 37.57858 | -8.85307 | 25059 ft | 395 kts | 335° |
| 2026-05-07 19:25 | 37.60515 | -8.86412 | 24062 ft | 407 kts | 338° |
| 2026-05-07 19:25 | 37.63179 | -8.87395 | 23294 ft | 401 kts | 340° |
| 2026-05-07 19:25 | 37.65857 | -8.88325 | 22393 ft | 397 kts | 340° |
| 2026-05-07 19:26 | 37.68496 | -8.89235 | 21544 ft | 391 kts | 340° |
| 2026-05-07 19:26 | 37.71101 | -8.90154 | 20723 ft | 386 kts | 339° |
| 2026-05-07 19:26 | 37.73666 | -8.91086 | 19927 ft | 381 kts | 339° |
| 2026-05-07 19:26 | 37.76195 | -8.92026 | 19156 ft | 377 kts | 339° |
| 2026-05-07 19:27 | 37.78676 | -8.92964 | 18605 ft | 366 kts | 338° |
| 2026-05-07 19:27 | 37.81074 | -8.93876 | 18153 ft | 354 kts | 338° |
| 2026-05-07 19:27 | 37.83393 | -8.94758 | 17680 ft | 342 kts | 338° |
| 2026-05-07 19:27 | 37.85634 | -8.95607 | 17283 ft | 330 kts | 339° |
| 2026-05-07 19:28 | 37.87775 | -8.96415 | 16895 ft | 320 kts | 339° |
| 2026-05-07 19:28 | 37.89885 | -8.97209 | 16515 ft | 314 kts | 339° |
| 2026-05-07 19:28 | 37.91981 | -8.98003 | 16138 ft | 316 kts | 339° |
| 2026-05-07 19:28 | 37.94091 | -8.98807 | 15761 ft | 317 kts | 340° |
| 2026-05-07 19:29 | 37.96211 | -8.99617 | 15377 ft | 319 kts | 340° |
| 2026-05-07 19:29 | 37.98341 | -9.00427 | 14988 ft | 320 kts | 340° |
| 2026-05-07 19:29 | 38.00480 | -9.01239 | 14615 ft | 322 kts | 340° |
| 2026-05-07 19:29 | 38.02628 | -9.02052 | 14288 ft | 321 kts | 341° |
| 2026-05-07 19:30 | 38.04713 | -9.02839 | 14172 ft | 313 kts | 341° |
| 2026-05-07 19:30 | 38.06774 | -9.03619 | 14016 ft | 306 kts | 341° |
| 2026-05-07 19:30 | 38.08807 | -9.04390 | 13776 ft | 304 kts | 341° |
| 2026-05-07 19:30 | 38.10827 | -9.05158 | 13475 ft | 302 kts | 341° |
| 2026-05-07 19:31 | 38.12836 | -9.05922 | 13180 ft | 301 kts | 341° |
| 2026-05-07 19:31 | 38.14832 | -9.06681 | 12813 ft | 301 kts | 341° |
| 2026-05-07 19:31 | 38.16904 | -9.07472 | 11973 ft | 319 kts | 342° |
| 2026-05-07 19:31 | 38.19075 | -9.08304 | 11200 ft | 332 kts | 342° |
| 2026-05-07 19:32 | 38.21267 | -9.09140 | 10747 ft | 323 kts | 341° |
| 2026-05-07 19:32 | 38.23352 | -9.09932 | 10329 ft | 311 kts | 341° |
| 2026-05-07 19:32 | 38.25391 | -9.10705 | 9925 ft | 300 kts | 341° |
| 2026-05-07 19:32 | 38.27361 | -9.11452 | 9498 ft | 290 kts | 341° |
| 2026-05-07 19:33 | 38.29262 | -9.12174 | 9092 ft | 280 kts | 341° |
| 2026-05-07 19:33 | 38.31094 | -9.12873 | 8713 ft | 270 kts | 341° |
| 2026-05-07 19:33 | 38.32869 | -9.13554 | 8335 ft | 264 kts | 341° |
| 2026-05-07 19:33 | 38.34617 | -9.14227 | 7944 ft | 261 kts | 341° |
| 2026-05-07 19:34 | 38.36344 | -9.14891 | 7578 ft | 258 kts | 341° |
| 2026-05-07 19:34 | 38.38072 | -9.15553 | 7191 ft | 260 kts | 341° |
| 2026-05-07 19:34 | 38.39803 | -9.16215 | 6798 ft | 260 kts | 341° |
| 2026-05-07 19:34 | 38.41513 | -9.16870 | 6407 ft | 261 kts | 341° |
| 2026-05-07 19:35 | 38.43225 | -9.17529 | 5981 ft | 253 kts | 340° |
| 2026-05-07 19:35 | 38.44878 | -9.18165 | 5588 ft | 244 kts | 340° |
| 2026-05-07 19:35 | 38.46487 | -9.18784 | 5209 ft | 240 kts | 341° |
| 2026-05-07 19:35 | 38.48076 | -9.19393 | 4886 ft | 237 kts | 340° |
| 2026-05-07 19:36 | 38.49639 | -9.19992 | 4600 ft | 231 kts | 339° |
| 2026-05-07 19:36 | 38.51181 | -9.20585 | 4543 ft | 232 kts | 341° |
| 2026-05-07 19:36 | 38.52691 | -9.21166 | 4447 ft | 233 kts | 340° |
| 2026-05-07 19:36 | 38.54147 | -9.21726 | 4379 ft | 231 kts | 341° |
| 2026-05-07 19:37 | 38.55688 | -9.22318 | 4270 ft | 230 kts | 340° |
| 2026-05-07 19:37 | 38.57184 | -9.22893 | 4160 ft | 220 kts | 340° |
| 2026-05-07 19:37 | 38.58602 | -9.23364 | 4052 ft | 207 kts | 351° |
| 2026-05-07 19:37 | 38.59999 | -9.23229 | 3869 ft | 200 kts | 13° |
| 2026-05-07 19:38 | 38.61274 | -9.22584 | 3638 ft | 193 kts | 18° |
| 2026-05-07 19:38 | 38.62478 | -9.21942 | 3393 ft | 184 kts | 19° |
| 2026-05-07 19:38 | 38.63635 | -9.21327 | 3150 ft | 177 kts | 19° |
| 2026-05-07 19:38 | 38.64751 | -9.20733 | 2904 ft | 171 kts | 18° |
| 2026-05-07 19:39 | 38.65832 | -9.20157 | 2683 ft | 167 kts | 18° |
| 2026-05-07 19:39 | 38.66884 | -9.19597 | 2463 ft | 165 kts | 18° |
| 2026-05-07 19:39 | 38.67936 | -9.19037 | 2246 ft | 163 kts | 19° |
| 2026-05-07 19:39 | 38.68985 | -9.18478 | 2017 ft | 163 kts | 17° |
| 2026-05-07 19:40 | 38.70022 | -9.17925 | 1816 ft | 162 kts | 17° |
| 2026-05-07 19:40 | 38.71057 | -9.17373 | 1577 ft | 158 kts | 19° |
| 2026-05-07 19:40 | 38.72016 | -9.16859 | 1362 ft | 143 kts | 17° |
| 2026-05-07 19:40 | 38.72903 | -9.16386 | 1168 ft | 138 kts | 18° |
| 2026-05-07 19:41 | 38.73785 | -9.15916 | 990 ft | 137 kts | 16° |
| 2026-05-07 19:41 | 38.74662 | -9.15448 | 800 ft | 137 kts | 17° |
| 2026-05-07 19:41 | 38.75562 | -9.14968 | 627 ft | 139 kts | 15° |
| 2026-05-07 19:41 | 38.76459 | -9.14494 | 434 ft | 140 kts | 18° |
| 2026-05-07 19:42 | 38.77339 | -9.14019 | 360 ft | 127 kts | 21° |
| 2026-05-07 19:42 | 38.77864 | -9.13745 | 365 ft | 60 kts | 22° |
| 2026-05-07 19:42 | 38.78197 | -9.13553 | 367 ft | 47 kts | 25° |
| 2026-05-07 19:42 | 38.78329 | -9.13400 | 364 ft | 18 kts | 36° |
| 2026-05-07 19:43 | 38.78354 | -9.13276 | 360 ft | 16 kts | 148° |
| 2026-05-07 19:43 | 38.78298 | -9.13275 | 363 ft | 2 kts | 195° |
| 2026-05-07 19:43 | 38.78296 | -9.13276 | 363 ft | 0 kts | 195° |
| 2026-05-07 19:44 | 38.78293 | -9.13276 | 362 ft | 1 kts | 195° |
| 2026-05-07 19:44 | 38.78287 | -9.13279 | 360 ft | 1 kts | 199° |
| 2026-05-07 19:44 | 38.78280 | -9.13283 | 361 ft | 1 kts | 201° |
| 2026-05-07 19:44 | 38.78278 | -9.13284 | 361 ft | 0 kts | 201° |
| 2026-05-07 19:46 | 38.78277 | -9.13284 | 360 ft | 1 kts | 201° |
| 2026-05-07 19:46 | 38.78238 | -9.13307 | 362 ft | 11 kts | 204° |
| 2026-05-07 19:46 | 38.78155 | -9.13351 | 362 ft | 15 kts | 202° |
| 2026-05-07 19:47 | 38.78045 | -9.13410 | 358 ft | 19 kts | 199° |
| 2026-05-07 19:47 | 38.77900 | -9.13384 | 354 ft | 22 kts | 166° |
| 2026-05-07 19:47 | 38.77765 | -9.13347 | 348 ft | 20 kts | 168° |
| 2026-05-07 19:47 | 38.77615 | -9.13320 | 336 ft | 19 kts | 180° |
| 2026-05-07 19:48 | 38.77505 | -9.13299 | 333 ft | 10 kts | 169° |
| 2026-05-07 19:48 | 38.77443 | -9.13283 | 338 ft | 9 kts | 168° |
| 2026-05-07 19:48 | 38.77438 | -9.13282 | 338 ft | 0 kts | 168° |
| 2026-05-07 19:48 | 38.77425 | -9.13276 | 338 ft | 6 kts | 154° |
| 2026-05-07 19:49 | 38.77417 | -9.13220 | 336 ft | 6 kts | 78° |
| 2026-05-07 19:49 | 38.77425 | -9.13172 | 334 ft | 4 kts | 78° |
| 2026-05-07 19:49 | 38.77429 | -9.13148 | 337 ft | 1 kts | 78° |
| 2026-05-07 19:49 | 38.77430 | -9.13142 | 337 ft | 0 kts | 78° |